createdAt,value
2023-04-02T00:01:38.483Z,99505.30
2023-04-02T00:03:45.253Z,99507.61
2023-04-02T00:05:37.504Z,99508.56
2023-04-02T00:07:33.330Z,99511.92
2023-04-02T00:09:30.221Z,99517.08
2023-04-02T00:11:37.486Z,99523.31
2023-04-02T00:13:35.640Z,99523.65
2023-04-02T00:15:28.209Z,99527.77
2023-04-02T00:17:21.789Z,99530.36
2023-04-02T00:19:18.758Z,99534.96
2023-04-02T00:21:20.659Z,99538.98
2023-04-02T00:23:14.632Z,99540.81
2023-04-02T00:25:13.457Z,99546.74
2023-04-02T00:27:09.950Z,99549.08
2023-04-02T00:29:03.858Z,99548.83
2023-04-02T00:30:59.246Z,99553.29
2023-04-02T00:32:51.542Z,99553.49
2023-04-02T00:34:43.173Z,99554.33
2023-04-02T00:36:35.588Z,99557.36
2023-04-02T00:38:29.897Z,99556.72
2023-04-02T00:40:26.437Z,99564.11
2023-04-02T00:42:18.540Z,99562.15
2023-04-02T00:44:13.141Z,99568.06
2023-04-02T00:46:11.151Z,99568.80
2023-04-02T00:48:31.730Z,99573.17
2023-04-02T00:50:35.949Z,99570.78
2023-04-02T00:52:28.381Z,99575.02
2023-04-02T00:54:22.500Z,99578.37
2023-04-02T00:56:26.445Z,99578.77
2023-04-02T00:58:37.463Z,99578.99
2023-04-02T01:00:34.209Z,99583.04
2023-04-02T01:02:31.802Z,99585.39
2023-04-02T01:04:31.603Z,99586.30
2023-04-02T01:06:23.987Z,99585.63
2023-04-02T01:08:27.485Z,99591.45
2023-04-02T01:10:24.150Z,99591.20
2023-04-02T01:12:28.216Z,99595.50
2023-04-02T01:14:36.216Z,99599.10
2023-04-02T01:16:31.065Z,99604.31
2023-04-02T01:18:52.247Z,99612.27
2023-04-02T01:21:33.173Z,99612.65
2023-04-02T01:23:35.175Z,99610.28
2023-04-02T01:25:42.758Z,99610.71
2023-04-02T01:27:51.419Z,99617.58
2023-04-02T01:29:49.050Z,99617.09
2023-04-02T01:31:41.180Z,99619.34
2023-04-02T01:33:34.525Z,99624.75
2023-04-02T01:35:31.165Z,99622.37
2023-04-02T01:37:38.244Z,99631.48
2023-04-02T01:39:56.868Z,99633.81
2023-04-02T01:41:58.028Z,99635.64
2023-04-02T01:44:03.769Z,99637.38
2023-04-02T01:45:58.236Z,99645.89
2023-04-02T01:47:50.214Z,99647.41
2023-04-02T01:49:43.432Z,99650.40
2023-04-02T01:51:41.082Z,99654.34
2023-04-02T01:53:33.374Z,99649.23
2023-04-02T01:55:35.525Z,99651.89
2023-04-02T01:57:28.206Z,99658.96
2023-04-02T01:59:22.322Z,99660.84
2023-04-02T02:01:17.453Z,99661.81
2023-04-02T02:03:11.564Z,99666.98
2023-04-02T02:05:03.624Z,99668.59
2023-04-02T02:06:58.669Z,99670.10
2023-04-02T02:08:52.212Z,99670.83
2023-04-02T02:10:44.066Z,99677.55
2023-04-02T02:12:36.038Z,99676.39
2023-04-02T02:14:29.323Z,99678.79
2023-04-02T02:16:21.571Z,99682.44
2023-04-02T02:18:13.448Z,99686.61
2023-04-02T02:20:11.453Z,99692.48
2023-04-02T02:22:15.815Z,99690.63
2023-04-02T02:24:09.063Z,99693.98
2023-04-02T02:26:00.580Z,99698.86
2023-04-02T02:27:59.432Z,99696.53
2023-04-02T02:29:57.118Z,99702.38
2023-04-02T02:31:53.139Z,99709.33
2023-04-02T02:33:53.178Z,99711.59
2023-04-02T02:35:53.254Z,99716.38
2023-04-02T02:37:47.911Z,99719.84
2023-04-02T02:39:43.480Z,99724.68
2023-04-02T02:41:50.344Z,99730.10
2023-04-02T02:43:45.174Z,99731.43
2023-04-02T02:45:39.074Z,99734.59
2023-04-02T02:47:33.439Z,99739.02
2023-04-02T02:49:33.959Z,99740.67
2023-04-02T02:51:29.472Z,99743.98
2023-04-02T02:53:23.500Z,99745.28
2023-04-02T02:55:20.924Z,99746.15
2023-04-02T02:57:17.846Z,99748.08
2023-04-02T02:59:11.403Z,99755.02
2023-04-02T03:01:03.559Z,99757.39
2023-04-02T03:02:57.021Z,99765.65
2023-04-02T03:04:50.828Z,99769.02
2023-04-02T03:06:42.350Z,99774.35
2023-04-02T03:08:41.741Z,99781.27
2023-04-02T03:10:44.418Z,99785.13
2023-04-02T03:12:54.238Z,99787.20
2023-04-02T03:15:02.679Z,99787.84
2023-04-02T03:16:59.816Z,99792.43
2023-04-02T03:19:05.922Z,99798.41
2023-04-02T03:21:02.889Z,99795.27
2023-04-02T03:23:11.922Z,99799.89
2023-04-02T03:25:12.562Z,99801.27
2023-04-02T03:27:20.555Z,99804.12
2023-04-02T03:29:18.890Z,99811.77
2023-04-02T03:31:16.869Z,99813.05
2023-04-02T03:33:19.162Z,99817.59
2023-04-02T03:35:21.149Z,99823.11
2023-04-02T03:37:30.523Z,99825.69
2023-04-02T03:39:46.842Z,99823.02
2023-04-02T03:41:43.057Z,99828.98
2023-04-02T03:43:39.500Z,99833.36
2023-04-02T03:45:37.311Z,99834.34
2023-04-02T03:48:01.013Z,99839.14
2023-04-02T03:50:00.517Z,99846.76
2023-04-02T03:52:03.863Z,99848.23
2023-04-02T03:53:56.416Z,99852.20
2023-04-02T03:55:48.723Z,99855.16
2023-04-02T03:57:46.049Z,99859.28
2023-04-02T03:59:44.325Z,99863.67
2023-04-02T04:02:02.011Z,99864.91
2023-04-02T04:03:56.288Z,99870.23
2023-04-02T04:05:51.858Z,99871.11
2023-04-02T04:07:44.363Z,99878.25
2023-04-02T04:09:37.897Z,99877.43
2023-04-02T04:11:36.140Z,99881.70
2023-04-02T04:14:01.477Z,99881.81
2023-04-02T04:16:00.051Z,99889.48
2023-04-02T04:18:24.604Z,99890.48
2023-04-02T04:20:26.386Z,99894.91
2023-04-02T04:22:20.302Z,99899.61
2023-04-02T04:24:23.419Z,99904.84
2023-04-02T04:26:49.775Z,99903.57
2023-04-02T04:29:05.860Z,99912.67
2023-04-02T04:31:01.563Z,99914.69
2023-04-02T04:33:04.243Z,99919.33
2023-04-02T04:35:01.103Z,99924.88
2023-04-02T04:36:55.317Z,99924.91
2023-04-02T04:38:55.408Z,99934.28
2023-04-02T04:40:54.261Z,99930.11
2023-04-02T04:42:48.632Z,99935.76
2023-04-02T04:44:46.550Z,99940.52
2023-04-02T04:46:41.993Z,99947.48
2023-04-02T04:48:42.485Z,99950.31
2023-04-02T04:50:58.416Z,99954.45
2023-04-02T04:52:50.254Z,99957.56
2023-04-02T04:54:42.491Z,99959.40
2023-04-02T04:56:34.349Z,99962.56
2023-04-02T04:58:35.296Z,99950.85
2023-04-02T05:00:29.913Z,99966.52
2023-04-02T05:02:29.946Z,99977.20
2023-04-02T05:04:39.688Z,99975.27
2023-04-02T05:06:31.994Z,99981.45
2023-04-02T05:08:30.114Z,99986.27
2023-04-02T05:10:25.007Z,99988.07
2023-04-02T05:12:28.328Z,99995.46
2023-04-02T05:14:30.036Z,99998.81
2023-04-02T05:16:37.264Z,99999.61
2023-04-02T05:18:31.873Z,100005.55
2023-04-02T05:20:23.942Z,100005.40
2023-04-02T05:22:51.128Z,100010.21
2023-04-02T05:24:43.016Z,100014.14
2023-04-02T05:26:40.650Z,100017.58
2023-04-02T05:28:56.630Z,100019.95
2023-04-02T05:30:56.422Z,100020.39
2023-04-02T05:32:56.460Z,100026.68
2023-04-02T05:34:51.724Z,100031.48
2023-04-02T05:36:46.871Z,100034.17
2023-04-02T05:38:44.036Z,100036.04
2023-04-02T05:40:39.901Z,100035.85
2023-04-02T05:42:32.549Z,100037.60
2023-04-02T05:44:32.444Z,100038.45
2023-04-02T05:46:28.595Z,100042.65
2023-04-02T05:48:25.452Z,100042.96
2023-04-02T05:50:22.166Z,100045.92
2023-04-02T05:52:17.869Z,100052.58
2023-04-02T05:54:40.085Z,100054.52
2023-04-02T05:56:44.143Z,100061.30
2023-04-02T05:58:59.392Z,100061.67
2023-04-02T06:01:12.126Z,100066.61
2023-04-02T06:03:16.499Z,100069.52
2023-04-02T06:05:13.217Z,100072.27
2023-04-02T06:07:08.480Z,100076.06
2023-04-02T06:09:20.223Z,100079.13
2023-04-02T06:11:16.576Z,100077.05
2023-04-02T06:13:09.008Z,100083.66
2023-04-02T06:15:01.357Z,100086.58
2023-04-02T06:16:52.651Z,100090.21
2023-04-02T06:18:44.900Z,100093.27
2023-04-02T06:20:36.856Z,100096.84
2023-04-02T06:22:38.245Z,100103.80
2023-04-02T06:24:31.339Z,100107.41
2023-04-02T06:26:39.216Z,100111.35
2023-04-02T06:28:54.976Z,100118.77
2023-04-02T06:30:46.672Z,100122.79
2023-04-02T06:32:37.889Z,100123.73
2023-04-02T06:34:31.375Z,100131.80
2023-04-02T06:36:24.484Z,100134.11
2023-04-02T06:38:20.243Z,100139.62
2023-04-02T06:40:44.363Z,100134.61
2023-04-02T06:42:38.963Z,100138.67
2023-04-02T06:44:34.252Z,100136.59
2023-04-02T06:46:28.909Z,100137.96
2023-04-02T06:48:21.568Z,100143.10
2023-04-02T06:50:16.774Z,100147.77
2023-04-02T06:52:19.613Z,100152.35
2023-04-02T06:54:18.156Z,100152.55
2023-04-02T06:56:12.816Z,100162.55
2023-04-02T06:58:04.679Z,100161.73
2023-04-02T06:59:56.238Z,100168.58
2023-04-02T07:01:54.012Z,100171.27
2023-04-02T07:03:45.727Z,100173.81
2023-04-02T07:05:37.442Z,100174.95
2023-04-02T07:07:29.290Z,100178.19
2023-04-02T07:09:21.002Z,100182.11
2023-04-02T07:11:18.235Z,100184.77
2023-04-02T07:13:21.651Z,100188.42
2023-04-02T07:15:16.618Z,100192.55
2023-04-02T07:17:17.017Z,100186.91
2023-04-02T07:19:16.777Z,100190.50
2023-04-02T07:21:08.615Z,100197.73
2023-04-02T07:23:00.513Z,100196.64
2023-04-02T07:24:52.512Z,100200.77
2023-04-02T07:26:44.378Z,100200.51
2023-04-02T07:28:36.294Z,100205.73
2023-04-02T07:30:27.761Z,100205.55
2023-04-02T07:32:19.995Z,100214.59
2023-04-02T07:34:11.969Z,100213.39
2023-04-02T07:36:03.973Z,100221.12
2023-04-02T07:37:55.886Z,100216.88
2023-04-02T07:39:47.954Z,100221.02
2023-04-02T07:41:57.206Z,100230.53
2023-04-02T07:43:48.950Z,100231.09
2023-04-02T07:45:43.833Z,100232.99
2023-04-02T07:47:35.823Z,100238.17
2023-04-02T07:49:27.678Z,100246.29
2023-04-02T07:51:26.083Z,100246.65
2023-04-02T07:53:30.099Z,100252.34
2023-04-02T07:55:21.575Z,100255.92
2023-04-02T07:57:13.355Z,100260.30
2023-04-02T07:59:05.747Z,100262.23
2023-04-02T08:00:57.349Z,100264.00
2023-04-02T08:02:48.939Z,100269.24
2023-04-02T08:04:40.627Z,100271.83
2023-04-02T08:06:32.112Z,100271.96
2023-04-02T08:08:25.051Z,100276.48
2023-04-02T08:10:19.139Z,100273.04
2023-04-02T08:12:14.025Z,100280.70
2023-04-02T08:14:05.348Z,100281.77
2023-04-02T08:15:59.365Z,100287.03
2023-04-02T08:17:51.477Z,100289.52
2023-04-02T08:19:53.713Z,100298.07
2023-04-02T08:21:48.120Z,100300.62
2023-04-02T08:23:39.692Z,100303.02
2023-04-02T08:25:31.585Z,100301.04
2023-04-02T08:27:24.521Z,100308.59
2023-04-02T08:29:16.299Z,100314.30
2023-04-02T08:31:09.100Z,100315.88
2023-04-02T08:33:00.515Z,100321.18
2023-04-02T08:34:52.953Z,100321.42
2023-04-02T08:36:45.648Z,100321.31
2023-04-02T08:38:37.180Z,100326.27
2023-04-02T08:40:39.721Z,100324.55
2023-04-02T08:42:47.396Z,100326.09
2023-04-02T08:45:21.245Z,100329.63
2023-04-02T08:47:20.699Z,100331.73
2023-04-02T08:49:15.717Z,100327.56
2023-04-02T08:51:08.380Z,100332.50
2023-04-02T08:53:06.236Z,100330.52
2023-04-02T08:54:58.224Z,100334.57
2023-04-02T08:56:56.224Z,100336.96
2023-04-02T08:58:50.830Z,100336.59
2023-04-02T09:00:44.926Z,100341.11
2023-04-02T09:02:43.565Z,100345.16
2023-04-02T09:04:35.123Z,100339.74
2023-04-02T09:06:29.417Z,100347.16
2023-04-02T09:08:24.983Z,100346.90
2023-04-02T09:10:17.389Z,100344.90
2023-04-02T09:12:28.876Z,100344.10
2023-04-02T09:14:25.824Z,100355.73
2023-04-02T09:16:22.605Z,100348.59
2023-04-02T09:18:19.217Z,100354.55
2023-04-02T09:20:19.097Z,100359.88
2023-04-02T09:22:19.186Z,100364.66
2023-04-02T09:24:14.358Z,100369.02
2023-04-02T09:26:27.337Z,100370.54
2023-04-02T09:28:24.428Z,100369.77
2023-04-02T09:30:31.959Z,100372.55
2023-04-02T09:32:28.658Z,100376.73
2023-04-02T09:34:33.599Z,100377.71
2023-04-02T09:36:37.269Z,100379.23
2023-04-02T09:38:31.704Z,100380.47
2023-04-02T09:40:29.529Z,100387.13
2023-04-02T09:42:34.309Z,100392.66
2023-04-02T09:44:28.351Z,100397.61
2023-04-02T09:46:28.376Z,100402.27
2023-04-02T09:48:39.477Z,100399.92
2023-04-02T09:51:42.828Z,100406.55
2023-04-02T09:53:38.675Z,100405.52
2023-04-02T09:55:32.223Z,100409.01
2023-04-02T09:57:25.268Z,100412.05
2023-04-02T09:59:18.439Z,100417.27
2023-04-02T10:01:28.224Z,100414.81
2023-04-02T10:03:24.842Z,100418.39
2023-04-02T10:05:36.967Z,100423.29
2023-04-02T10:07:36.892Z,100430.39
2023-04-02T10:09:31.168Z,100432.55
2023-04-02T10:11:43.786Z,100433.90
2023-04-02T10:13:40.650Z,100435.00
2023-04-02T10:15:38.646Z,100440.52
2023-04-02T10:17:32.916Z,100441.23
2023-04-02T10:19:33.386Z,100441.30
2023-04-02T10:23:20.056Z,100445.82
2023-04-02T10:25:15.884Z,100451.67
2023-04-02T10:27:39.773Z,100456.06
2023-04-02T10:29:51.014Z,100457.42
2023-04-02T10:32:10.362Z,100463.33
2023-04-02T10:34:06.552Z,100467.44
2023-04-02T10:36:10.341Z,100470.14
2023-04-02T10:38:44.198Z,100472.54
2023-04-02T10:40:47.794Z,100472.90
2023-04-02T10:43:08.488Z,100473.13
2023-04-02T10:45:37.902Z,100472.88
2023-04-02T10:47:44.832Z,100471.15
2023-04-02T10:49:41.469Z,100475.71
2023-04-02T10:51:44.161Z,100470.02
2023-04-02T10:53:48.594Z,100471.99
2023-04-02T10:55:57.939Z,100472.77
2023-04-02T10:57:51.547Z,100477.86
2023-04-02T10:59:49.176Z,100484.59
2023-04-02T11:01:41.708Z,100487.58
2023-04-02T11:03:40.360Z,100490.98
2023-04-02T11:05:51.411Z,100493.90
2023-04-02T11:07:53.591Z,100498.48
2023-04-02T11:09:48.288Z,100497.27
2023-04-02T11:11:42.315Z,100500.38
2023-04-02T11:13:34.120Z,100500.65
2023-04-02T11:15:26.006Z,100500.60
2023-04-02T11:17:19.777Z,100506.20
2023-04-02T11:19:14.703Z,100508.93
2023-04-02T11:21:07.792Z,100509.84
2023-04-02T11:23:13.263Z,100515.88
2023-04-02T11:25:21.736Z,100517.98
2023-04-02T11:27:15.447Z,100523.22
2023-04-02T11:29:28.519Z,100520.69
2023-04-02T11:31:21.697Z,100525.23
2023-04-02T11:33:38.194Z,100529.95
2023-04-02T11:35:31.759Z,100529.37
2023-04-02T11:37:34.430Z,100534.09
2023-04-02T11:39:54.146Z,100536.52
2023-04-02T11:42:05.527Z,100538.84
2023-04-02T11:44:00.825Z,100537.30
2023-04-02T11:45:57.168Z,100542.97
2023-04-02T11:48:01.350Z,100544.88
2023-04-02T11:50:04.463Z,100545.31
2023-04-02T11:52:05.608Z,100546.83
2023-04-02T11:54:04.265Z,100550.90
2023-04-02T11:56:18.239Z,100554.18
2023-04-02T11:58:38.248Z,100556.98
2023-04-02T12:00:36.335Z,100560.94
2023-04-02T12:02:54.891Z,100567.16
2023-04-02T12:05:05.186Z,100568.29
2023-04-02T12:07:04.629Z,100572.30
2023-04-02T12:09:04.896Z,100575.23
2023-04-02T12:11:00.759Z,100579.81
2023-04-02T12:12:52.404Z,100583.63
2023-04-02T12:14:52.711Z,100584.59
2023-04-02T12:16:44.592Z,100584.75
2023-04-02T12:18:43.191Z,100584.16
2023-04-02T12:20:35.055Z,100585.89
2023-04-02T12:22:30.307Z,100586.36
2023-04-02T12:24:24.133Z,100590.80
2023-04-02T12:26:27.075Z,100594.05
2023-04-02T12:28:19.014Z,100592.95
2023-04-02T12:30:14.555Z,100593.99
2023-04-02T12:32:22.219Z,100597.71
2023-04-02T12:34:20.146Z,100601.66
2023-04-02T12:36:14.143Z,100598.46
2023-04-02T12:38:06.237Z,100600.10
2023-04-02T12:40:07.274Z,100597.95
2023-04-02T12:41:59.766Z,100600.41
2023-04-02T12:44:01.327Z,100604.61
2023-04-02T12:45:55.125Z,100604.30
2023-04-02T12:47:47.185Z,100600.60
2023-04-02T12:49:40.530Z,100605.90
2023-04-02T12:51:32.966Z,100606.70
2023-04-02T12:53:29.804Z,100609.89
2023-04-02T12:55:23.622Z,100612.36
2023-04-02T12:57:27.236Z,100616.13
2023-04-02T12:59:34.880Z,100614.45
2023-04-02T13:01:31.659Z,100614.70
2023-04-02T13:03:23.613Z,100617.39
2023-04-02T13:06:03.666Z,100615.70
2023-04-02T13:07:54.985Z,100623.40
2023-04-02T13:09:51.951Z,100624.11
2023-04-02T13:11:43.651Z,100626.34
2023-04-02T13:13:39.970Z,100627.78
2023-04-02T13:15:34.441Z,100630.24
2023-04-02T13:17:41.087Z,100633.98
2023-04-02T13:19:34.058Z,100633.98
2023-04-02T13:21:28.517Z,100628.21
2023-04-02T13:23:29.678Z,100631.62
2023-04-02T13:25:27.603Z,100633.01
2023-04-02T13:27:19.694Z,100633.29
2023-04-02T13:29:34.110Z,100636.62
2023-04-02T13:31:26.881Z,100635.40
2023-04-02T13:33:18.608Z,100630.62
2023-04-02T13:35:10.185Z,100636.20
2023-04-02T13:37:01.963Z,100637.63
2023-04-02T13:38:53.513Z,100638.17
2023-04-02T13:40:46.025Z,100640.84
2023-04-02T13:42:42.863Z,100643.46
2023-04-02T13:44:37.604Z,100642.64
2023-04-02T13:46:31.616Z,100648.34
2023-04-02T13:48:26.260Z,100648.15
2023-04-02T13:50:20.537Z,100656.73
2023-04-02T13:52:15.897Z,100657.04
2023-04-02T13:54:14.706Z,100653.44
2023-04-02T13:56:08.546Z,100657.67
2023-04-02T13:57:59.888Z,100658.77
2023-04-02T13:59:51.924Z,100660.17
2023-04-02T14:01:45.228Z,100661.35
2023-04-02T14:03:37.725Z,100663.95
2023-04-02T14:05:47.259Z,100671.64
2023-04-02T14:07:41.912Z,100670.19
2023-04-02T14:09:43.644Z,100673.23
2023-04-02T14:11:56.870Z,100675.71
2023-04-02T14:14:34.466Z,100683.53
2023-04-02T14:16:32.069Z,100681.12
2023-04-02T14:18:53.917Z,100684.15
2023-04-02T14:21:07.291Z,100685.15
2023-04-02T14:23:21.964Z,100685.79
2023-04-02T14:25:38.122Z,100690.46
2023-04-02T14:27:44.767Z,100693.08
2023-04-02T14:29:54.607Z,100692.40
2023-04-02T14:32:15.689Z,100697.02
2023-04-02T14:34:33.406Z,100696.22
2023-04-02T14:36:43.547Z,100699.73
2023-04-02T14:38:43.287Z,100704.55
2023-04-02T14:40:51.648Z,100701.88
2023-04-02T14:42:49.262Z,100703.21
2023-04-02T14:44:50.368Z,100708.07
2023-04-02T14:46:41.887Z,100710.30
2023-04-02T14:49:02.159Z,100715.26
2023-04-02T14:51:00.147Z,100711.48
2023-04-02T14:52:55.922Z,100714.52
2023-04-02T14:54:57.624Z,100716.81
2023-04-02T14:56:58.666Z,100718.89
2023-04-02T14:59:03.065Z,100723.87
2023-04-02T15:01:02.114Z,100723.27
2023-04-02T15:03:18.801Z,100727.37
2023-04-02T15:05:22.667Z,100727.20
2023-04-02T15:07:24.379Z,100728.28
2023-04-02T15:09:21.139Z,100728.78
2023-04-02T15:11:16.421Z,100731.27
2023-04-02T15:13:17.774Z,100735.89
2023-04-02T15:15:40.364Z,100735.55
2023-04-02T15:17:32.782Z,100738.09
2023-04-02T15:19:24.357Z,100744.11
2023-04-02T15:21:29.997Z,100744.15
2023-04-02T15:23:35.686Z,100747.89
2023-04-02T15:25:29.558Z,100750.81
2023-04-02T15:28:09.925Z,100752.41
2023-04-02T15:30:15.084Z,100751.19
2023-04-02T15:32:36.134Z,100753.61
2023-04-02T15:34:32.914Z,100757.89
2023-04-02T15:36:46.804Z,100760.55
2023-04-02T15:38:49.941Z,100763.15
2023-04-02T15:41:02.737Z,100766.66
2023-04-02T15:43:20.032Z,100769.41
2023-04-02T15:45:23.370Z,100770.15
2023-04-02T15:47:21.035Z,100772.61
2023-04-02T15:49:35.950Z,100774.10
2023-04-02T15:51:51.919Z,100771.61
2023-04-02T15:54:16.530Z,100772.28
2023-04-02T15:56:17.351Z,100776.76
2023-04-02T15:58:20.907Z,100779.22
2023-04-02T16:00:26.945Z,100777.41
2023-04-02T16:02:46.363Z,100779.39
2023-04-02T16:05:03.935Z,100783.91
2023-04-02T16:07:29.209Z,100788.55
2023-04-02T16:09:39.262Z,100790.48
2023-04-02T16:11:31.234Z,100791.12
2023-04-02T16:13:37.071Z,100795.16
2023-04-02T16:15:37.692Z,100797.05
2023-04-02T16:17:35.117Z,100798.39
2023-04-02T16:19:42.516Z,100794.34
2023-04-02T16:22:15.735Z,100800.27
2023-04-02T16:24:14.103Z,100803.55
2023-04-02T16:26:35.490Z,100809.95
2023-04-02T16:28:35.858Z,100809.14
2023-04-02T16:30:53.041Z,100814.33
2023-04-02T16:32:56.951Z,100820.98
2023-04-02T16:35:15.267Z,100823.65
2023-04-02T16:37:33.344Z,100831.04
2023-04-02T16:39:35.698Z,100831.55
2023-04-02T16:41:52.384Z,100831.08
2023-04-02T16:44:00.600Z,100836.23
2023-04-02T16:45:57.584Z,100838.06
2023-04-02T16:48:13.918Z,100840.67
2023-04-02T16:50:42.487Z,100843.67
2023-04-02T16:53:05.861Z,100849.41
2023-04-02T16:55:13.006Z,100848.08
2023-04-02T16:57:23.266Z,100850.60
2023-04-02T16:59:48.852Z,100856.40
2023-04-02T17:02:55.160Z,100859.35
2023-04-02T17:05:32.508Z,100863.91
2023-04-02T17:07:40.679Z,100873.05
2023-04-02T17:09:51.764Z,100871.23
2023-04-02T17:11:53.336Z,100876.33
2023-04-02T17:13:51.291Z,100879.70
2023-04-02T17:15:47.954Z,100884.77
2023-04-02T17:17:49.803Z,100888.11
2023-04-02T17:19:43.832Z,100891.39
2023-04-02T17:21:38.284Z,100892.03
2023-04-02T17:23:32.332Z,100896.34
2023-04-02T17:25:31.205Z,100892.40
2023-04-02T17:27:27.064Z,100896.80
2023-04-02T17:29:35.628Z,100899.64
2023-04-02T17:31:30.940Z,100902.40
2023-04-02T17:33:26.771Z,100902.46
2023-04-02T17:35:40.427Z,100906.51
2023-04-02T17:37:39.002Z,100912.02
2023-04-02T17:39:53.351Z,100911.31
2023-04-02T17:41:55.587Z,100915.76
2023-04-02T17:44:05.883Z,100914.20
2023-04-02T17:46:03.872Z,100917.59
2023-04-02T17:48:02.803Z,100918.64
2023-04-02T17:50:15.936Z,100920.43
2023-04-02T17:52:19.802Z,100922.18
2023-04-02T17:54:23.346Z,100923.80
2023-04-02T17:56:46.817Z,100925.23
2023-04-02T17:58:49.525Z,100933.02
2023-04-02T18:01:03.458Z,100930.33
2023-04-02T18:03:09.351Z,100934.00
2023-04-02T18:05:04.258Z,100936.90
2023-04-02T18:07:02.006Z,100941.96
2023-04-02T18:09:09.534Z,100947.27
2023-04-02T18:11:11.037Z,100945.77
2023-04-02T18:13:19.387Z,100947.27
2023-04-02T18:15:38.747Z,100952.20
2023-04-02T18:17:39.076Z,100962.13
2023-04-02T18:19:37.122Z,100965.02
2023-04-02T18:21:43.865Z,100969.16
2023-04-02T18:24:03.058Z,100965.73
2023-04-02T18:26:32.278Z,100974.64
2023-04-02T18:28:48.944Z,100977.53
2023-04-02T18:30:49.238Z,100980.88
2023-04-02T18:32:47.016Z,100983.63
2023-04-02T18:34:47.945Z,100988.73
2023-04-02T18:37:15.386Z,100993.07
2023-04-02T18:39:25.784Z,101001.16
2023-04-02T18:41:55.106Z,101002.16
2023-04-02T18:44:13.565Z,101005.39
2023-04-02T18:46:31.025Z,101003.73
2023-04-02T18:48:26.788Z,101007.00
2023-04-02T18:50:29.510Z,101012.20
2023-04-02T18:52:25.063Z,101012.02
2023-04-02T18:54:17.019Z,101014.47
2023-04-02T18:56:14.973Z,101019.27
2023-04-02T18:58:15.157Z,101009.06
2023-04-02T19:00:26.460Z,101021.20
2023-04-02T19:02:21.148Z,101023.29
2023-04-02T19:04:15.480Z,101028.25
2023-04-02T19:06:37.787Z,101030.39
2023-04-02T19:08:34.779Z,101031.27
2023-04-02T19:10:32.367Z,101034.51
2023-04-02T19:12:24.294Z,101032.05
2023-04-02T19:14:18.790Z,101032.62
2023-04-02T19:16:22.740Z,101036.52
2023-04-02T19:18:17.574Z,101034.00
2023-04-02T19:20:25.262Z,101040.11
2023-04-02T19:22:45.187Z,101038.80
2023-04-02T19:25:14.046Z,101042.73
2023-04-02T19:27:33.552Z,101045.17
2023-04-02T19:29:48.009Z,101051.50
2023-04-02T19:31:58.935Z,101050.14
2023-04-02T19:34:06.780Z,101049.51
2023-04-02T19:36:23.969Z,101048.60
2023-04-02T19:38:24.456Z,101050.02
2023-04-02T19:40:46.888Z,101048.19
2023-04-02T19:42:46.566Z,101055.86
2023-04-02T19:44:43.415Z,101053.85
2023-04-02T19:46:35.953Z,101055.31
2023-04-02T19:48:36.932Z,101058.74
2023-04-02T19:50:29.001Z,101060.66
2023-04-02T19:52:21.292Z,101056.98
2023-04-02T19:54:13.167Z,101062.84
2023-04-02T19:56:05.191Z,101065.05
2023-04-02T19:58:08.502Z,101068.08
2023-04-02T20:00:12.552Z,101068.85
2023-04-02T20:02:07.242Z,101068.23
2023-04-02T20:03:58.805Z,101068.36
2023-04-02T20:05:51.224Z,101073.71
2023-04-02T20:07:42.944Z,101073.72
2023-04-02T20:09:34.497Z,101073.64
2023-04-02T20:11:27.619Z,101076.52
2023-04-02T20:13:19.400Z,101079.56
2023-04-02T20:15:11.800Z,101079.45
2023-04-02T20:17:03.337Z,101077.98
2023-04-02T20:18:55.890Z,101076.71
2023-04-02T20:20:48.553Z,101078.38
2023-04-02T20:22:40.627Z,101076.44
2023-04-02T20:24:31.820Z,101082.73
2023-04-02T20:26:23.340Z,101082.66
2023-04-02T20:28:15.087Z,101089.98
2023-04-02T20:30:06.999Z,101096.66
2023-04-02T20:31:59.130Z,101097.77
2023-04-02T20:33:56.724Z,101099.48
2023-04-02T20:35:49.838Z,101102.35
2023-04-02T20:37:41.985Z,101103.10
2023-04-02T20:39:33.703Z,101104.59
2023-04-02T20:41:26.652Z,101107.63
2023-04-02T20:43:18.165Z,101111.38
2023-04-02T20:45:10.439Z,101111.94
2023-04-02T20:47:02.532Z,101112.55
2023-04-02T20:48:54.231Z,101114.01
2023-04-02T20:50:48.467Z,101117.21
2023-04-02T20:52:39.662Z,101119.95
2023-04-02T20:54:31.702Z,101127.19
2023-04-02T20:56:26.776Z,101123.20
2023-04-02T20:58:18.980Z,101125.68
2023-04-02T21:00:11.942Z,101127.27
2023-04-02T21:02:03.699Z,101128.50
2023-04-02T21:03:59.662Z,101130.70
2023-04-02T21:05:51.251Z,101131.61
2023-04-02T21:07:43.259Z,101133.62
2023-04-02T21:09:35.410Z,101137.00
2023-04-02T21:11:27.242Z,101140.73
2023-04-02T21:13:19.051Z,101141.89
2023-04-02T21:15:13.602Z,101144.23
2023-04-02T21:17:07.454Z,101142.57
2023-04-02T21:19:02.207Z,101142.41
2023-04-02T21:21:01.287Z,101145.25
2023-04-02T21:22:52.980Z,101146.34
2023-04-02T21:24:44.739Z,101144.93
2023-04-02T21:26:38.828Z,101148.64
2023-04-02T21:28:30.525Z,101155.30
2023-04-02T21:30:21.719Z,101151.16
2023-04-02T21:32:21.282Z,101152.94
2023-04-02T21:34:15.695Z,101154.31
2023-04-02T21:36:11.633Z,101158.21
2023-04-02T21:38:03.646Z,101159.87
2023-04-02T21:39:55.005Z,101160.79
2023-04-02T21:41:47.478Z,101162.80
2023-04-02T21:43:38.778Z,101161.61
2023-04-02T21:45:30.255Z,101165.45
2023-04-02T21:47:21.753Z,101169.60
2023-04-02T21:49:16.315Z,101167.04
2023-04-02T21:51:10.069Z,101172.60
2023-04-02T21:53:02.727Z,101168.39
2023-04-02T21:54:54.005Z,101174.05
2023-04-02T21:56:46.297Z,101177.49
2023-04-02T21:58:37.653Z,101178.27
2023-04-02T22:00:29.246Z,101174.06
2023-04-02T22:02:20.732Z,101175.75
2023-04-02T22:04:21.194Z,101177.81
2023-04-02T22:06:15.952Z,101176.80
2023-04-02T22:08:07.630Z,101181.48
2023-04-02T22:09:59.296Z,101183.39
2023-04-02T22:11:54.704Z,101186.08
2023-04-02T22:13:47.459Z,101184.67
2023-04-02T22:15:39.228Z,101188.58
2023-04-02T22:17:30.914Z,101190.79
2023-04-02T22:19:22.707Z,101193.77
2023-04-02T22:21:15.606Z,101192.89
2023-04-02T22:23:06.980Z,101192.20
2023-04-02T22:25:00.344Z,101196.48
2023-04-02T22:26:52.467Z,101195.56
2023-04-02T22:28:44.892Z,101198.67
2023-04-02T22:30:37.315Z,101204.17
2023-04-02T22:32:29.030Z,101206.23
2023-04-02T22:34:21.621Z,101206.68
2023-04-02T22:36:14.353Z,101207.41
2023-04-02T22:38:06.275Z,101209.64
2023-04-02T22:39:57.804Z,101206.14
2023-04-02T22:42:11.382Z,101206.93
2023-04-02T22:44:03.155Z,101208.24
2023-04-02T22:45:55.225Z,101204.30
2023-04-02T22:47:48.741Z,101209.41
2023-04-02T22:49:40.543Z,101210.12
2023-04-02T22:51:32.325Z,101211.85
2023-04-02T22:53:23.866Z,101212.52
2023-04-02T22:55:15.876Z,101216.48
2023-04-02T22:57:07.499Z,101219.80
2023-04-02T22:58:58.901Z,101221.86
2023-04-02T23:00:50.530Z,101221.83
2023-04-02T23:02:42.466Z,101221.88